TimePDT,TemperatureF,Dew PointF,Humidity,Sea Level PressureIn,VisibilityMPH,Wind Direction,Wind SpeedMPH,Gust SpeedMPH,PrecipitationIn,Events,Conditions,WindDirDegrees,DateUTC
12:53 AM,64.0,44.1,48,29.77,10.0,SSE,10.4,-,N/A,,Clear,150,2013-07-07 07:53:00
1:53 AM,61.0,44.1,54,29.78,10.0,SSE,9.2,-,N/A,,Clear,150,2013-07-07 08:53:00
2:53 AM,61.0,44.1,54,29.78,10.0,SSE,10.4,-,N/A,,Clear,150,2013-07-07 09:53:00
3:53 AM,60.1,45.0,57,29.79,10.0,South,6.9,-,N/A,,Clear,170,2013-07-07 10:53:00
4:53 AM,59.0,45.0,60,29.79,10.0,SSE,5.8,-,N/A,,Clear,160,2013-07-07 11:53:00
5:53 AM,57.0,46.0,67,29.82,10.0,ESE,6.9,-,N/A,,Clear,110,2013-07-07 12:53:00
6:53 AM,61.0,46.9,60,29.83,10.0,SE,5.8,-,N/A,,Clear,140,2013-07-07 13:53:00
7:53 AM,68.0,48.0,49,29.83,10.0,SE,3.5,-,N/A,,Clear,130,2013-07-07 14:53:00
8:53 AM,72.0,48.0,43,29.83,10.0,Calm,Calm,-,N/A,,Clear,0,2013-07-07 15:53:00
9:53 AM,78.1,48.0,35,29.82,10.0,Variable,3.5,-,N/A,,Clear,0,2013-07-07 16:53:00
10:53 AM,82.0,46.9,29,29.81,10.0,Variable,5.8,-,N/A,,Clear,0,2013-07-07 17:53:00
11:53 AM,84.9,46.9,27,29.79,10.0,Variable,3.5,-,N/A,,Clear,0,2013-07-07 18:53:00
12:53 PM,87.1,46.0,24,29.78,10.0,NNE,5.8,-,N/A,,Clear,20,2013-07-07 19:53:00
1:53 PM,89.1,43.0,20,29.76,10.0,West,6.9,-,N/A,,Clear,280,2013-07-07 20:53:00
2:53 PM,91.0,43.0,19,29.74,10.0,NW,9.2,-,N/A,,Clear,310,2013-07-07 21:53:00
3:53 PM,93.0,37.9,15,29.73,10.0,NNW,8.1,18.4,N/A,,Clear,330,2013-07-07 22:53:00
4:53 PM,91.9,36.0,14,29.72,10.0,NNW,8.1,17.3,N/A,,Clear,340,2013-07-07 23:53:00
5:53 PM,91.0,36.0,14,29.71,10.0,WNW,12.7,20.7,N/A,,Clear,290,2013-07-08 00:53:00
6:53 PM,89.1,36.0,15,29.70,10.0,WNW,13.8,19.6,N/A,,Clear,300,2013-07-08 01:53:00
7:53 PM,84.9,37.0,18,29.71,10.0,NNW,9.2,-,N/A,,Clear,330,2013-07-08 02:53:00
8:53 PM,79.0,33.1,19,29.72,10.0,NNW,5.8,-,N/A,,Clear,340,2013-07-08 03:53:00
9:53 PM,78.1,34.0,20,29.74,10.0,Variable,3.5,-,N/A,,Clear,0,2013-07-08 04:53:00
10:53 PM,73.9,37.0,26,29.77,10.0,West,9.2,-,N/A,,Clear,260,2013-07-08 05:53:00
11:53 PM,69.1,44.1,40,29.79,10.0,WNW,8.1,-,N/A,,Clear,290,2013-07-08 06:53:00